Time;durP1;ratioP1;P1;durP2;ratioP2;P2;SDS_P1;SDS_P2;PMS_P1;PMS_P2;Temp;Humidity;BMP_temperature;BMP_pressure;BME280_temperature;BME280_humidity;BME280_pressure;Samples;Min_cycle;Max_cycle;Signal;HPM_P1;HPM_P2
2021/08/14 00:01:58;;;;;;;25.98;20.02;;;17.70;61.90;;;;;;5068255;28;20029;-66
2021/08/14 00:04:25;;;;;;;23.00;18.23;;;17.80;61.50;;;;;;5052828;28;20021;-69
2021/08/14 00:06:53;;;;;;;25.63;20.08;;;17.90;61.40;;;;;;5052923;28;20100;-66
2021/08/14 00:09:20;;;;;;;24.35;15.50;;;18.00;61.00;;;;;;5052809;28;20479;-74
2021/08/14 00:11:47;;;;;;;23.17;18.42;;;18.10;59.80;;;;;;5052672;28;20437;-72
2021/08/14 00:14:15;;;;;;;19.42;14.32;;;18.20;60.40;;;;;;5053065;28;20021;-68
2021/08/14 00:16:42;;;;;;;23.33;17.17;;;18.30;58.90;;;;;;5052863;28;20472;-74
2021/08/14 00:19:10;;;;;;;21.88;16.83;;;18.30;59.30;;;;;;5052021;28;20021;-71
2021/08/14 00:21:37;;;;;;;21.95;17.02;;;18.40;59.40;;;;;;5051401;28;20025;-68
2021/08/14 00:24:05;;;;;;;21.58;15.80;;;18.50;59.50;;;;;;5052941;28;20028;-69
2021/08/14 00:26:32;;;;;;;17.85;13.65;;;18.60;58.90;;;;;;5052548;28;20031;-66
2021/08/14 00:29:00;;;;;;;21.90;17.08;;;18.70;57.80;;;;;;5051310;28;20055;-68
2021/08/14 00:31:27;;;;;;;23.13;15.50;;;18.70;59.10;;;;;;5052970;28;20037;-69
2021/08/14 00:33:55;;;;;;;19.83;15.93;;;18.80;59.10;;;;;;5051736;28;20025;-66
2021/08/14 00:36:23;;;;;;;21.48;14.35;;;18.80;58.90;;;;;;5053007;28;20112;-70
2021/08/14 00:38:50;;;;;;;17.45;14.90;;;18.90;58.00;;;;;;5052926;28;20029;-74
2021/08/14 00:41:18;;;;;;;22.13;14.40;;;18.90;58.60;;;;;;5052609;28;20108;-70
2021/08/14 00:43:48;;;;;;;22.08;15.65;;;19.00;58.60;;;;;;5052460;28;20533;-67
2021/08/14 00:46:15;;;;;;;16.65;12.98;;;19.00;58.60;;;;;;5035687;28;20067;-67
2021/08/14 00:48:43;;;;;;;18.55;14.10;;;19.20;57.60;;;;;;5052438;28;20068;-75
2021/08/14 00:51:10;;;;;;;21.10;15.98;;;19.20;58.10;;;;;;5051611;28;20489;-69
2021/08/14 00:53:38;;;;;;;19.42;13.65;;;19.20;58.30;;;;;;5051437;28;20403;-65
2021/08/14 00:56:06;;;;;;;15.45;11.38;;;19.20;58.20;;;;;;5052038;28;20029;-69
2021/08/14 00:58:33;;;;;;;18.75;12.40;;;19.40;57.60;;;;;;5052022;28;20029;-73
2021/08/14 01:01:01;;;;;;;16.80;13.60;;;19.50;57.40;;;;;;5053845;28;20025;-71
2021/08/14 01:03:29;;;;;;;18.45;13.50;;;19.50;57.30;;;;;;5056151;28;20023;-73
2021/08/14 01:05:57;;;;;;;17.65;14.63;;;19.60;57.40;;;;;;5056554;28;20036;-73
2021/08/14 01:08:24;;;;;;;20.27;12.60;;;19.60;57.50;;;;;;5056190;28;20437;-69
2021/08/14 01:10:52;;;;;;;18.13;10.05;;;19.80;57.10;;;;;;5056048;28;20052;-71
2021/08/14 01:13:19;;;;;;;15.05;12.73;;;19.90;56.40;;;;;;5055995;28;20035;-71
2021/08/14 01:15:51;;;;;;;14.77;10.98;;;19.90;56.70;;;;;;5055208;28;20037;-70
2021/08/14 01:18:19;;;;;;;19.90;13.40;;;20.00;56.50;;;;;;5056102;28;20025;-72
2021/08/14 01:20:48;;;;;;;16.30;12.82;;;20.00;56.80;;;;;;5056043;28;20380;-75
2021/08/14 01:23:17;;;;;;;13.15;9.43;;;19.90;57.00;;;;;;5055596;28;20051;-71
2021/08/14 01:25:45;;;;;;;13.93;9.70;;;20.10;56.80;;;;;;5055648;28;20029;-66
2021/08/14 01:28:14;;;;;;;14.18;12.45;;;20.30;56.40;;;;;;5055692;28;20032;-67
2021/08/14 01:30:43;;;;;;;14.68;10.75;;;20.10;56.70;;;;;;5055086;28;20124;-70
2021/08/14 01:33:12;;;;;;;13.10;9.75;;;20.10;57.00;;;;;;5055507;28;20037;-69
2021/08/14 01:35:45;;;;;;;12.45;9.50;;;20.10;57.00;;;;;;5054002;28;20051;-71
2021/08/14 01:38:12;;;;;;;14.90;11.23;;;20.40;56.50;;;;;;5055382;28;20029;-69
2021/08/14 01:40:40;;;;;;;14.07;10.70;;;20.30;56.40;;;;;;5055239;28;20032;-72
2021/08/14 01:43:07;;;;;;;12.73;10.27;;;20.20;57.00;;;;;;5055562;28;20025;-74
2021/08/14 01:45:35;;;;;;;15.98;9.13;;;20.20;56.90;;;;;;5055509;28;20032;-73
2021/08/14 01:48:02;;;;;;;10.60;7.13;;;20.30;56.80;;;;;;5055262;28;20024;-68
2021/08/14 01:50:29;;;;;;;9.27;6.78;;;20.50;56.60;;;;;;5055174;28;20029;-66
2021/08/14 01:52:57;;;;;;;15.88;9.07;;;20.50;56.20;;;;;;5055827;28;20048;-75
2021/08/14 01:55:24;;;;;;;11.35;10.10;;;20.50;56.00;;;;;;5056313;28;20479;-66
2021/08/14 01:57:52;;;;;;;12.80;9.93;;;20.40;56.40;;;;;;5055869;28;20056;-66
2021/08/14 02:00:19;;;;;;;10.13;7.95;;;20.50;56.40;;;;;;5055230;28;20093;-64
2021/08/14 02:02:50;;;;;;;15.32;9.80;;;20.60;56.50;;;;;;5055619;28;20052;-69
2021/08/14 02:05:17;;;;;;;20.02;8.93;;;20.60;56.30;;;;;;5054839;28;20437;-70
2021/08/14 02:07:45;;;;;;;12.95;8.55;;;20.70;56.10;;;;;;5056024;28;20029;-66
2021/08/14 02:10:12;;;;;;;15.32;9.40;;;20.60;56.30;;;;;;5055727;28;20017;-73
2021/08/14 02:12:39;;;;;;;11.27;8.60;;;20.70;56.10;;;;;;5064300;28;20048;-67
2021/08/14 02:15:08;;;;;;;9.60;7.90;;;20.60;56.40;;;;;;5073519;28;20025;-70
2021/08/14 02:17:36;;;;;;;15.90;9.23;;;20.70;56.60;;;;;;5072491;28;20020;-68
2021/08/14 02:20:34;;;;;;;14.10;10.00;;;20.70;56.30;;;;;;5073980;28;20025;-68
2021/08/14 02:23:02;;;;;;;12.05;8.85;;;20.80;56.10;;;;;;5071852;28;20039;-58
2021/08/14 02:25:29;;;;;;;12.68;8.95;;;20.90;56.70;;;;;;5072117;28;20025;-61
2021/08/14 02:27:57;;;;;;;14.55;8.50;;;21.10;56.10;;;;;;5070464;28;20034;-54
2021/08/14 02:30:24;;;;;;;15.57;10.30;;;21.10;56.10;;;;;;5073647;28;20041;-59
2021/08/14 02:32:51;;;;;;;11.38;8.02;;;21.20;54.40;;;;;;5072166;28;20040;-61
2021/08/14 02:35:19;;;;;;;14.57;9.43;;;21.20;56.10;;;;;;5070693;28;20032;-60
2021/08/14 02:37:46;;;;;;;16.20;10.50;;;21.20;55.20;;;;;;5051540;28;20090;-61
2021/08/14 02:40:13;;;;;;;15.48;10.70;;;21.30;54.50;;;;;;5072759;28;20453;-61
2021/08/14 02:42:44;;;;;;;15.65;9.80;;;21.40;54.10;;;;;;5071704;28;20056;-59
2021/08/14 02:45:13;;;;;;;13.90;10.00;;;21.40;53.30;;;;;;5072162;28;20079;-56
2021/08/14 02:47:40;;;;;;;15.77;9.52;;;21.50;53.60;;;;;;5067141;28;20028;-60
2021/08/14 02:50:09;;;;;;;15.13;9.60;;;21.50;53.20;;;;;;5070371;28;20081;-61
2021/08/14 02:52:36;;;;;;;11.35;8.60;;;21.60;53.10;;;;;;5062644;28;20120;-65
2021/08/14 02:55:04;;;;;;;14.88;9.80;;;21.30;53.90;;;;;;5068521;28;20017;-69
2021/08/14 02:57:32;;;;;;;14.57;10.15;;;21.10;54.70;;;;;;5067453;28;20067;-67
2021/08/14 03:00:10;;;;;;;15.48;9.82;;;21.00;55.10;;;;;;5074048;28;20024;-64
2021/08/14 03:02:37;;;;;;;14.00;9.77;;;21.00;55.80;;;;;;5071956;28;20042;-70
2021/08/14 03:05:05;;;;;;;11.23;8.77;;;21.00;55.90;;;;;;5073222;28;20017;-73
2021/08/14 03:07:33;;;;;;;14.93;9.68;;;21.20;55.80;;;;;;5067459;28;20021;-73
2021/08/14 03:10:01;;;;;;;13.82;10.27;;;21.30;55.30;;;;;;5073375;28;20051;-64
2021/08/14 03:12:34;;;;;;;13.65;9.43;;;21.30;55.30;;;;;;5073776;28;20487;-69
2021/08/14 03:15:06;;;;;;;17.38;11.27;;;21.40;54.80;;;;;;5071163;28;20059;-70
2021/08/14 03:17:34;;;;;;;18.60;11.10;;;21.40;55.50;;;;;;5068412;28;20033;-72
2021/08/14 03:20:08;;;;;;;14.98;11.05;;;21.50;54.80;;;;;;5073853;28;20089;-68
2021/08/14 03:22:36;;;;;;;18.80;11.32;;;21.70;55.30;;;;;;5071027;28;20052;-68
2021/08/14 03:25:08;;;;;;;18.25;11.30;;;21.80;55.10;;;;;;5072205;28;20031;-65
2021/08/14 03:27:36;;;;;;;18.52;11.13;;;21.80;55.30;;;;;;5067773;28;20056;-66
2021/08/14 03:30:05;;;;;;;19.85;11.10;;;21.80;54.80;;;;;;5072593;28;20491;-67
2021/08/14 03:32:32;;;;;;;13.52;10.00;;;21.90;54.10;;;;;;5071693;28;20116;-71
2021/08/14 03:34:59;;;;;;;17.55;10.82;;;21.90;54.70;;;;;;5072526;28;20024;-64
2021/08/14 03:37:30;;;;;;;15.25;10.48;;;22.00;54.80;;;;;;5067943;28;20530;-68
2021/08/14 03:39:57;;;;;;;16.58;10.68;;;22.10;54.30;;;;;;5072487;28;20167;-71
2021/08/14 03:42:24;;;;;;;16.42;11.02;;;22.10;54.20;;;;;;5072326;28;20091;-71
2021/08/14 03:44:53;;;;;;;15.75;8.88;;;22.00;54.60;;;;;;5072723;28;20028;-71
2021/08/14 03:47:20;;;;;;;17.10;10.60;;;22.20;53.30;;;;;;5066771;28;20031;-67
2021/08/14 03:49:48;;;;;;;16.63;8.75;;;22.10;54.20;;;;;;5072150;28;20024;-72
2021/08/14 03:52:15;;;;;;;15.95;11.02;;;22.40;53.00;;;;;;5071705;28;20028;-66
2021/08/14 03:54:43;;;;;;;15.07;9.80;;;22.50;54.40;;;;;;5071809;28;20036;-74
2021/08/14 03:57:11;;;;;;;13.57;8.90;;;22.40;53.90;;;;;;5067691;28;20029;-70
2021/08/14 03:59:38;;;;;;;14.55;8.98;;;22.40;53.50;;;;;;5084254;28;20424;-61
2021/08/14 04:02:05;;;;;;;14.32;7.95;;;22.50;52.90;;;;;;5071149;28;20524;-65
2021/08/14 04:04:33;;;;;;;14.27;9.60;;;22.50;52.50;;;;;;5071686;28;20020;-68
2021/08/14 04:07:00;;;;;;;13.65;7.82;;;22.50;54.20;;;;;;5070940;28;20135;-74
2021/08/14 04:09:27;;;;;;;11.05;6.90;;;22.60;53.70;;;;;;5072478;28;20020;-71
2021/08/14 04:11:55;;;;;;;13.98;7.60;;;22.60;52.80;;;;;;5071883;28;20463;-73
2021/08/14 04:14:22;;;;;;;12.73;7.63;;;22.70;52.60;;;;;;5072171;28;20494;-70
2021/08/14 04:16:49;;;;;;;12.10;7.68;;;22.70;52.40;;;;;;5073139;28;20039;-69
2021/08/14 04:19:17;;;;;;;14.82;8.05;;;22.80;52.50;;;;;;5074871;28;20021;-70
2021/08/14 04:21:45;;;;;;;13.98;8.65;;;22.70;53.80;;;;;;5075117;28;20031;-70
2021/08/14 04:24:12;;;;;;;16.08;7.57;;;22.70;54.00;;;;;;5073756;28;20025;-72
2021/08/14 04:26:39;;;;;;;12.40;8.02;;;22.70;53.90;;;;;;5073286;28;20468;-69
2021/08/14 04:29:07;;;;;;;11.73;6.75;;;22.70;54.10;;;;;;5072926;28;20451;-72
2021/08/14 04:31:34;;;;;;;8.80;5.82;;;22.70;53.40;;;;;;5072830;28;20028;-70
2021/08/14 04:34:02;;;;;;;11.00;6.68;;;22.80;52.80;;;;;;5073239;28;20039;-72
2021/08/14 04:36:30;;;;;;;11.38;7.20;;;22.90;51.50;;;;;;5074702;28;20096;-72
2021/08/14 04:38:57;;;;;;;10.25;6.00;;;22.70;51.60;;;;;;5076741;28;20086;-70
2021/08/14 04:41:25;;;;;;;11.93;6.30;;;22.70;51.90;;;;;;5074425;28;20021;-71
2021/08/14 04:43:52;;;;;;;11.50;7.22;;;22.70;53.80;;;;;;5075306;28;20116;-70
2021/08/14 04:46:20;;;;;;;14.73;7.07;;;22.60;54.20;;;;;;5076334;28;20081;-69
2021/08/14 04:48:47;;;;;;;10.73;6.43;;;22.60;54.10;;;;;;5076758;28;20016;-71
2021/08/14 04:51:15;;;;;;;11.13;7.05;;;22.60;53.40;;;;;;5074382;28;20039;-73
2021/08/14 04:53:46;;;;;;;10.00;4.72;;;22.70;53.70;;;;;;5075919;28;20025;-70
2021/08/14 04:56:13;;;;;;;13.93;6.45;;;22.60;50.70;;;;;;5075114;28;20062;-71
2021/08/14 04:58:41;;;;;;;10.82;7.45;;;22.70;52.70;;;;;;5076258;28;20078;-71
2021/08/14 05:01:08;;;;;;;9.70;6.68;;;22.60;54.00;;;;;;5076883;28;20025;-69
2021/08/14 05:03:35;;;;;;;11.27;7.30;;;22.60;53.90;;;;;;5077419;28;20025;-71
2021/08/14 05:06:03;;;;;;;9.70;6.78;;;22.70;53.70;;;;;;5076838;28;20021;-74
2021/08/14 05:08:36;;;;;;;9.98;6.82;;;22.70;53.60;;;;;;5076984;28;20028;-66
2021/08/14 05:11:04;;;;;;;11.45;5.63;;;22.70;53.80;;;;;;5068890;28;20055;-66
2021/08/14 05:13:32;;;;;;;8.95;5.03;;;22.80;50.70;;;;;;5075328;28;20077;-70
2021/08/14 05:15:59;;;;;;;8.20;5.03;;;22.90;50.50;;;;;;5074725;28;20024;-68
2021/08/14 05:18:27;;;;;;;8.32;5.18;;;22.80;50.80;;;;;;5078177;28;20021;-69
2021/08/14 05:20:54;;;;;;;9.00;5.07;;;22.80;52.60;;;;;;5074722;28;20044;-69
2021/08/14 05:23:22;;;;;;;8.23;5.90;;;22.80;51.90;;;;;;5053898;28;20028;-69
2021/08/14 05:25:49;;;;;;;7.13;4.68;;;22.70;53.10;;;;;;5074801;28;20044;-68
2021/08/14 05:28:16;;;;;;;8.70;5.05;;;22.80;51.00;;;;;;5074876;28;20522;-62
2021/08/14 05:30:47;;;;;;;5.18;3.88;;;22.70;52.80;;;;;;5073737;28;20048;-67
2021/08/14 05:33:14;;;;;;;7.40;4.53;;;22.70;50.00;;;;;;5073393;28;20028;-66
2021/08/14 05:35:45;;;;;;;8.13;5.40;;;22.70;53.40;;;;;;5072223;28;20422;-60
2021/08/14 05:38:12;;;;;;;6.72;3.90;;;22.80;52.00;;;;;;5073275;28;20044;-63
2021/08/14 05:40:39;;;;;;;7.85;4.78;;;22.70;49.40;;;;;;5074273;28;20787;-63
2021/08/14 05:43:07;;;;;;;9.30;4.60;;;22.70;50.70;;;;;;5073183;28;20066;-61
2021/08/14 05:45:34;;;;;;;8.43;4.00;;;22.60;50.90;;;;;;5069490;28;20050;-64
2021/08/14 05:48:06;;;;;;;12.00;4.22;;;22.50;50.20;;;;;;5073033;28;20017;-62
2021/08/14 05:50:34;;;;;;;6.55;3.85;;;22.50;49.10;;;;;;5065395;28;20693;-67
2021/08/14 05:53:11;;;;;;;5.80;3.78;;;22.30;50.30;;;;;;5068776;28;20056;-66
2021/08/14 05:55:39;;;;;;;7.80;3.75;;;22.20;51.90;;;;;;5066369;28;20162;-70
2021/08/14 05:58:09;;;;;;;5.72;3.88;;;22.10;51.20;;;;;;5070207;28;20112;-68
2021/08/14 06:00:39;;;;;;;5.85;3.50;;;22.10;51.80;;;;;;5070421;28;20028;-67
2021/08/14 06:03:10;;;;;;;10.75;4.07;;;22.10;51.20;;;;;;5069182;28;20040;-66
2021/08/14 06:05:38;;;;;;;6.85;3.40;;;22.20;50.90;;;;;;5066231;28;20021;-70
2021/08/14 06:08:06;;;;;;;8.25;3.53;;;22.20;50.10;;;;;;5069681;28;20089;-67
2021/08/14 06:10:34;;;;;;;8.70;3.80;;;22.20;50.90;;;;;;5068437;28;20025;-71
2021/08/14 06:13:07;;;;;;;7.57;3.28;;;22.20;52.20;;;;;;5065674;28;20033;-67
2021/08/14 06:15:34;;;;;;;5.45;3.28;;;22.30;52.30;;;;;;5064891;28;20024;-68
2021/08/14 06:18:02;;;;;;;5.20;3.35;;;22.20;53.20;;;;;;5066075;28;20328;-68
2021/08/14 06:20:34;;;;;;;6.15;3.45;;;22.30;53.50;;;;;;5069179;28;20044;-69
2021/08/14 06:23:01;;;;;;;5.20;3.13;;;22.20;53.80;;;;;;5068961;28;20086;-72
2021/08/14 06:25:29;;;;;;;9.32;2.65;;;22.20;51.00;;;;;;5065665;28;20170;-70
2021/08/14 06:27:57;;;;;;;6.05;3.38;;;22.10;51.50;;;;;;5068926;28;20028;-67
2021/08/14 06:30:25;;;;;;;6.22;3.65;;;22.00;54.50;;;;;;5069378;28;20055;-70
2021/08/14 06:32:52;;;;;;;6.05;3.55;;;21.90;54.50;;;;;;5069194;28;20036;-70
2021/08/14 06:35:20;;;;;;;6.07;3.20;;;21.80;54.90;;;;;;5067267;28;20035;-68
2021/08/14 06:37:47;;;;;;;6.00;2.85;;;21.70;54.20;;;;;;5075348;28;20025;-74
2021/08/14 06:40:15;;;;;;;6.57;3.25;;;21.60;53.30;;;;;;5075372;28;20479;-71
2021/08/14 06:42:43;;;;;;;9.18;2.70;;;21.40;56.10;;;;;;5071023;28;20479;-59
2021/08/14 06:45:11;;;;;;;6.63;2.70;;;21.30;53.20;;;;;;5069954;28;20024;-63
2021/08/14 06:47:38;;;;;;;5.80;3.00;;;21.10;53.30;;;;;;5073831;28;20028;-74
2021/08/14 06:50:07;;;;;;;3.95;2.35;;;20.90;52.80;;;;;;5075711;28;20021;-70
2021/08/14 06:52:35;;;;;;;8.82;3.08;;;20.80;53.80;;;;;;5075342;28;20028;-67
2021/08/14 06:55:04;;;;;;;7.75;3.05;;;20.70;55.80;;;;;;5074314;28;20017;-71
2021/08/14 06:57:32;;;;;;;8.00;2.55;;;20.50;56.40;;;;;;5075489;28;20379;-71
2021/08/14 06:59:59;;;;;;;3.60;2.60;;;20.40;55.90;;;;;;5075643;28;20017;-70
2021/08/14 07:02:27;;;;;;;3.17;2.60;;;20.30;57.00;;;;;;5074263;28;20056;-70
2021/08/14 07:04:55;;;;;;;8.02;2.95;;;20.10;57.70;;;;;;5076123;28;20520;-72
2021/08/14 07:07:22;;;;;;;5.82;3.55;;;20.00;58.60;;;;;;5075329;28;20030;-66
2021/08/14 07:09:49;;;;;;;7.00;2.85;;;19.90;59.10;;;;;;5074920;28;20020;-72
2021/08/14 07:12:17;;;;;;;5.53;3.30;;;19.80;58.20;;;;;;5075231;28;20097;-72
2021/08/14 07:14:44;;;;;;;5.85;2.85;;;19.70;58.10;;;;;;5076902;28;20101;-69
2021/08/14 07:17:11;;;;;;;6.05;2.97;;;19.60;59.90;;;;;;5075228;28;20025;-73
2021/08/14 07:19:39;;;;;;;6.68;2.78;;;19.60;58.70;;;;;;5076716;28;20101;-72
2021/08/14 07:22:07;;;;;;;6.05;3.10;;;19.60;59.40;;;;;;5076859;28;20025;-71
2021/08/14 07:24:34;;;;;;;5.70;3.30;;;19.60;59.70;;;;;;5078070;28;20445;-70
2021/08/14 07:27:01;;;;;;;4.00;2.45;;;19.50;60.80;;;;;;5077248;28;20029;-71
2021/08/14 07:29:29;;;;;;;8.90;2.60;;;19.40;60.40;;;;;;5073391;28;20036;-71
2021/08/14 07:31:56;;;;;;;7.90;2.78;;;19.40;61.20;;;;;;5076000;28;20060;-70
2021/08/14 07:34:24;;;;;;;5.05;2.63;;;19.30;60.20;;;;;;5074493;28;20020;-70
2021/08/14 07:36:51;;;;;;;4.63;2.67;;;19.30;61.20;;;;;;5073805;28;20107;-71
2021/08/14 07:39:19;;;;;;;5.28;2.35;;;19.20;61.60;;;;;;5075762;28;20021;-70
2021/08/14 07:41:46;;;;;;;5.78;2.22;;;19.20;60.70;;;;;;5073755;28;20360;-72
2021/08/14 07:44:14;;;;;;;5.35;2.30;;;19.20;61.30;;;;;;5055536;28;20032;-67
2021/08/14 07:46:41;;;;;;;6.80;2.47;;;19.10;61.70;;;;;;5054427;28;20017;-77
2021/08/14 07:49:09;;;;;;;6.43;2.25;;;19.10;62.80;;;;;;5063845;28;20033;-69
2021/08/14 07:51:36;;;;;;;3.53;2.30;;;19.10;62.60;;;;;;5071701;28;20045;-70
2021/08/14 07:54:03;;;;;;;4.53;2.30;;;19.10;62.40;;;;;;5072699;28;20101;-70
2021/08/14 07:56:31;;;;;;;5.43;2.55;;;19.10;62.40;;;;;;5071217;28;20150;-64
2021/08/14 07:58:58;;;;;;;3.17;1.83;;;19.10;62.00;;;;;;5071964;28;20498;-66
2021/08/14 08:01:26;;;;;;;5.22;2.65;;;19.00;62.30;;;;;;5073034;28;20070;-67
2021/08/14 08:03:54;;;;;;;4.78;2.50;;;19.00;62.30;;;;;;5068443;28;20544;-70
2021/08/14 08:06:22;;;;;;;2.90;1.70;;;19.00;62.40;;;;;;5070412;28;20025;-70
2021/08/14 08:08:49;;;;;;;4.68;2.20;;;19.00;62.60;;;;;;5071888;28;20032;-72
2021/08/14 08:11:17;;;;;;;6.15;2.30;;;18.90;62.80;;;;;;5073454;28;20052;-68
2021/08/14 08:13:44;;;;;;;4.18;2.20;;;18.90;62.90;;;;;;5076433;28;20403;-71
2021/08/14 08:16:11;;;;;;;4.40;2.08;;;18.80;63.10;;;;;;5072025;28;20094;-69
2021/08/14 08:18:39;;;;;;;5.07;2.33;;;18.80;63.20;;;;;;5075726;28;20438;-67
2021/08/14 08:21:06;;;;;;;5.53;2.20;;;18.80;63.20;;;;;;5073157;28;20028;-67
2021/08/14 08:23:34;;;;;;;5.82;2.03;;;18.80;63.90;;;;;;5071826;28;20483;-71
2021/08/14 08:26:04;;;;;;;2.92;2.00;;;18.80;63.40;;;;;;5068988;28;20034;-65
2021/08/14 08:28:32;;;;;;;3.42;2.10;;;18.70;63.40;;;;;;5067406;28;20021;-68
2021/08/14 08:31:00;;;;;;;3.88;1.77;;;18.70;63.40;;;;;;5069487;28;20076;-64
2021/08/14 08:33:27;;;;;;;4.20;2.30;;;18.70;63.40;;;;;;5071235;28;20064;-64
2021/08/14 08:35:55;;;;;;;4.47;2.17;;;18.70;63.40;;;;;;5067651;28;20810;-64
2021/08/14 08:38:22;;;;;;;3.20;2.03;;;18.70;63.40;;;;;;5070276;28;20115;-65
2021/08/14 08:40:51;;;;;;;2.67;1.67;;;18.70;63.40;;;;;;5070966;28;20033;-66
2021/08/14 08:43:18;;;;;;;4.50;2.42;;;18.60;63.50;;;;;;5070864;28;20356;-69
2021/08/14 08:45:46;;;;;;;2.55;1.98;;;18.60;63.50;;;;;;5065057;28;20071;-74
2021/08/14 08:48:19;;;;;;;3.13;2.17;;;18.60;63.40;;;;;;5073217;28;20494;-71
2021/08/14 08:50:48;;;;;;;3.22;2.08;;;18.60;63.50;;;;;;5070215;28;20071;-72
2021/08/14 08:53:21;;;;;;;3.38;1.98;;;18.60;63.70;;;;;;5069761;28;20066;-70
2021/08/14 08:55:49;;;;;;;2.92;1.75;;;18.60;63.60;;;;;;5068249;28;20029;-71
2021/08/14 08:58:17;;;;;;;3.75;2.10;;;18.60;63.60;;;;;;5070171;28;20060;-70
2021/08/14 09:00:48;;;;;;;3.75;2.13;;;18.60;63.70;;;;;;5070652;28;20029;-71
2021/08/14 09:03:27;;;;;;;3.72;2.22;;;18.50;63.60;;;;;;5071603;28;20482;-72
2021/08/14 09:05:56;;;;;;;12.25;3.25;;;18.50;63.80;;;;;;5066922;28;20082;-68
2021/08/14 09:11:50;;;;;;;;;;;18.50;64.10;;;;;;5071443;28;20559;-64
2021/08/14 09:14:24;;;;;;;6.60;3.47;;;18.40;64.00;;;;;;5072155;28;19909;-68
2021/08/14 09:17:14;;;;;;;4.10;3.22;;;18.40;64.40;;;;;;5062981;28;20158;-66
2021/08/14 09:19:42;;;;;;;6.03;2.92;;;18.40;64.30;;;;;;5071673;28;20494;-65
2021/08/14 09:22:17;;;;;;;4.60;2.53;;;18.30;64.50;;;;;;5071414;28;20030;-68
2021/08/14 09:25:09;;;;;;;4.20;2.45;;;18.30;64.80;;;;;;5072261;28;20027;-67
2021/08/14 09:27:53;;;;;;;3.55;2.20;;;18.30;64.70;;;;;;5067843;28;20048;-67
2021/08/14 09:30:42;;;;;;;3.97;2.30;;;18.30;64.40;;;;;;5071070;28;20081;-66
2021/08/14 09:33:15;;;;;;;14.23;3.63;;;18.20;64.30;;;;;;5071419;28;20044;-69
2021/08/14 09:35:46;;;;;;;4.40;2.22;;;18.30;64.60;;;;;;5068108;28;21431;-72
2021/08/14 09:38:15;;;;;;;4.30;2.80;;;18.20;64.50;;;;;;5071096;28;20036;-72
2021/08/14 09:40:48;;;;;;;3.70;2.65;;;18.20;64.70;;;;;;5070804;28;20047;-65
2021/08/14 09:43:32;;;;;;;4.50;2.72;;;18.20;64.50;;;;;;5072350;28;20023;-69
2021/08/14 09:45:59;;;;;;;3.80;2.45;;;18.10;64.50;;;;;;5065089;28;20025;-65
2021/08/14 09:48:28;;;;;;;3.72;2.25;;;18.10;64.70;;;;;;5070822;28;20078;-67
2021/08/14 09:50:56;;;;;;;4.05;2.80;;;18.10;65.40;;;;;;5070723;28;20017;-68
2021/08/14 09:53:25;;;;;;;3.58;2.40;;;18.10;64.80;;;;;;5071727;28;20033;-67
2021/08/14 09:56:26;;;;;;;3.85;2.40;;;18.10;66.60;;;;;;5066301;28;20389;-64
2021/08/14 09:58:54;;;;;;;5.90;2.65;;;18.00;65.20;;;;;;5070089;28;20033;-69
2021/08/14 10:01:26;;;;;;;6.15;3.60;;;18.00;65.40;;;;;;5071005;28;20031;-66
2021/08/14 10:03:58;;;;;;;7.90;2.65;;;18.00;66.00;;;;;;5073080;28;20037;-71
2021/08/14 10:06:27;;;;;;;9.63;5.72;;;18.00;65.90;;;;;;5068316;28;20100;-71
2021/08/14 10:08:58;;;;;;;48.80;23.83;;;18.00;65.70;;;;;;5069421;28;20167;-62
2021/08/14 10:11:27;;;;;;;80.27;40.70;;;17.90;65.70;;;;;;5069539;28;20037;-68
2021/08/14 10:13:54;;;;;;;102.95;53.55;;;17.90;66.00;;;;;;5071104;28;20020;-70
2021/08/14 10:17:13;;;;;;;104.70;52.15;;;17.90;65.70;;;;;;5063329;28;20071;-67
2021/08/14 10:19:40;;;;;;;107.07;52.17;;;18.00;65.60;;;;;;5065504;28;20048;-64
2021/08/14 10:25:24;;;;;;;130.95;59.70;;;17.90;65.80;;;;;;5069503;28;20584;-72
2021/08/14 10:28:19;;;;;;;113.03;58.22;;;17.90;65.50;;;;;;5069084;28;20028;-71
2021/08/14 10:31:13;;;;;;;128.13;63.38;;;17.90;65.80;;;;;;5068733;28;20071;-68
2021/08/14 10:33:40;;;;;;;;;;;17.90;65.70;;;;;;5071715;28;20436;-69
2021/08/14 10:36:59;;;;;;;136.27;71.53;;;17.90;65.80;;;;;;5067647;28;19911;-63
2021/08/14 10:39:31;;;;;;;146.32;72.10;;;17.90;65.70;;;;;;5071490;28;20052;-72
2021/08/14 10:42:28;;;;;;;;;;;17.90;65.90;;;;;;5071961;28;20425;-66
2021/08/14 10:45:23;;;;;;;143.75;73.50;;;18.00;66.10;;;;;;5070617;28;19908;-65
2021/08/14 10:48:02;;;;;;;166.80;79.50;;;17.90;66.20;;;;;;5070836;28;20016;-71
2021/08/14 10:50:45;;;;;;;147.88;79.53;;;17.90;66.10;;;;;;5072316;28;20028;-71
2021/08/14 10:53:26;;;;;;;153.52;82.05;;;17.90;66.30;;;;;;5071464;28;20036;-63
2021/08/14 10:56:36;;;;;;;157.40;82.10;;;17.90;67.00;;;;;;5065055;28;21562;-69
2021/08/14 11:00:02;;;;;;;150.88;78.57;;;17.90;66.40;;;;;;5030783;28;20044;-68
2021/08/14 11:02:29;;;;;;;149.05;76.75;;;17.80;66.80;;;;;;5068761;28;20031;-67
2021/08/14 11:04:58;;;;;;;152.98;81.55;;;17.80;66.90;;;;;;5068582;28;20612;-68
2021/08/14 11:07:47;;;;;;;155.68;80.05;;;17.80;66.80;;;;;;5064500;28;20297;-69
2021/08/14 11:10:43;;;;;;;162.48;82.28;;;17.80;67.30;;;;;;5069616;28;20056;-66
2021/08/14 11:13:39;;;;;;;156.50;82.88;;;17.70;66.60;;;;;;5070354;28;20067;-63
2021/08/14 11:16:07;;;;;;;149.23;79.63;;;17.70;67.00;;;;;;5062596;28;20029;-66
2021/08/14 11:19:07;;;;;;;157.50;81.60;;;17.70;67.10;;;;;;5068823;28;20020;-65
2021/08/14 11:21:42;;;;;;;162.00;86.43;;;17.70;67.10;;;;;;5043057;28;20036;-62
2021/08/14 11:24:10;;;;;;;156.77;84.45;;;17.70;67.00;;;;;;5067403;28;20371;-67
2021/08/14 11:26:39;;;;;;;154.40;84.38;;;17.70;67.00;;;;;;5061211;28;20521;-62
2021/08/14 11:29:08;;;;;;;158.77;87.88;;;17.70;67.40;;;;;;5063049;28;20029;-70
2021/08/14 11:31:36;;;;;;;151.13;81.95;;;17.70;67.20;;;;;;5063615;28;20111;-64
2021/08/14 11:34:13;;;;;;;156.18;83.10;;;17.70;67.50;;;;;;5068263;28;20073;-66
2021/08/14 11:36:42;;;;;;;146.45;81.05;;;17.70;67.50;;;;;;5057305;28;20478;-63
2021/08/14 11:39:10;;;;;;;149.18;83.10;;;17.70;67.50;;;;;;5066723;28;20035;-69
2021/08/14 11:41:38;;;;;;;148.75;82.18;;;17.70;67.60;;;;;;5070100;28;20032;-64
2021/08/14 11:44:10;;;;;;;158.77;84.47;;;17.70;67.80;;;;;;5070405;28;20138;-62
2021/08/14 11:46:37;;;;;;;;;;;17.70;67.60;;;;;;5060797;28;20384;-64
2021/08/14 11:49:19;;;;;;;148.73;82.32;;;17.70;67.80;;;;;;5069028;28;19946;-70
2021/08/14 11:52:09;;;;;;;159.10;85.30;;;17.70;67.90;;;;;;5069245;28;20612;-68
2021/08/14 11:54:37;;;;;;;141.07;81.10;;;17.60;68.00;;;;;;5068130;28;20482;-69
2021/08/14 11:57:12;;;;;;;142.82;81.43;;;17.60;67.70;;;;;;5069767;28;20037;-71
2021/08/14 11:59:40;;;;;;;146.90;74.22;;;17.60;67.80;;;;;;5064591;28;20360;-70
2021/08/14 12:02:25;;;;;;;151.57;83.65;;;17.60;68.10;;;;;;5060110;28;20028;-60
2021/08/14 12:04:55;;;;;;;142.65;81.38;;;17.60;67.90;;;;;;5069297;28;20016;-62
2021/08/14 12:07:26;;;;;;;132.23;76.47;;;17.50;67.80;;;;;;5068456;28;20017;-61
2021/08/14 12:09:58;;;;;;;144.80;80.00;;;17.50;68.10;;;;;;5068341;28;20028;-62
2021/08/14 12:12:35;;;;;;;130.45;73.68;;;17.50;68.00;;;;;;5069052;28;20505;-61
2021/08/14 12:15:14;;;;;;;136.95;78.18;;;17.50;68.20;;;;;;5067878;28;20024;-65
2021/08/14 12:17:45;;;;;;;132.98;73.47;;;17.50;68.10;;;;;;5068190;28;20108;-65
2021/08/14 12:20:13;;;;;;;131.17;74.77;;;17.50;68.30;;;;;;5067929;28;20039;-65
2021/08/14 12:22:40;;;;;;;135.60;76.50;;;17.40;68.20;;;;;;5067985;28;20277;-68
2021/08/14 12:25:26;;;;;;;135.35;73.20;;;17.40;68.30;;;;;;5068404;28;20037;-63
2021/08/14 12:27:53;;;;;;;123.88;67.68;;;17.40;68.40;;;;;;5068306;28;20032;-64
2021/08/14 12:30:23;;;;;;;122.65;70.18;;;17.40;68.60;;;;;;5067778;28;20086;-65
2021/08/14 12:32:52;;;;;;;122.38;68.50;;;17.40;68.80;;;;;;5068063;28;20072;-64
2021/08/14 12:35:27;;;;;;;124.13;69.43;;;17.40;68.80;;;;;;5066613;28;20098;-65
2021/08/14 12:38:05;;;;;;;120.85;68.07;;;17.30;69.00;;;;;;5067947;28;20028;-62
2021/08/14 12:40:32;;;;;;;121.10;68.43;;;17.30;69.10;;;;;;5067888;28;20123;-64
2021/08/14 12:43:15;;;;;;;123.47;69.63;;;17.30;69.20;;;;;;5067459;28;20036;-62
2021/08/14 12:45:42;;;;;;;119.38;68.13;;;17.20;69.10;;;;;;5067274;28;20098;-65
2021/08/14 12:48:10;;;;;;;112.35;68.63;;;17.20;69.10;;;;;;5067928;28;20017;-63
2021/08/14 12:50:39;;;;;;;117.20;65.82;;;17.20;69.20;;;;;;5067326;28;20049;-64
2021/08/14 12:53:18;;;;;;;115.65;65.32;;;17.20;69.40;;;;;;5067483;28;20050;-64
2021/08/14 12:55:50;;;;;;;116.90;65.70;;;17.20;69.50;;;;;;5067257;28;20023;-62
2021/08/14 12:58:23;;;;;;;114.28;63.97;;;17.20;69.70;;;;;;5070479;28;20104;-64
2021/08/14 13:00:56;;;;;;;109.07;63.35;;;17.20;69.60;;;;;;5070550;28;20037;-61